Lake Sherwood, California
Current Conditions -  °F | °C
As of 4:55 PM on Saturday 20 Dec 2014 (Local Time) from KCMA Reporting Station
Clear Clear  
Wind Chill: 61°   Ceiling: Unl
Heat Index: 61°   Visibility: 10mi
Dew Point: 55°   Wind: 3mph
Humidity: 81%   Direction: 180°S
Pressure: 30.11"   Gusts: NA
Location:  34.1434°N, 118.876°W
Report Text: KCMA 210055Z 18003KT 10SM CLR 16/13 A3011 RMK AO2 SLP204 T01610128
Loading
Personal Weather Stations






























Interactive Weather Map New forecast layout! Learn more

10-Day Weather Forecast

Advertisements
Track Severe Weather on mobile